NCAR-RAP Real-Time Weather Data

Output produced by METARs form (24 April 2018  22:58 UTC)
found at http://weather.rap.ucar.edu/surface/
 
RODN 242236Z 30007KT 9SM BKN012 BKN017 OVC029 20/18 A2987 RMK AO2A SLP121 $
RODN 242226Z 29007KT 10SM FEW010 BKN018 21/18 A2986 RMK AO2A SLP117 $
RODN 242156Z 29006KT 10SM FEW010 BKN018 BKN035 20/18 A2985 RMK AO2A DZB2056E2057DZB2059E01RAB01E11DZB11E18DZB26E47 SLP114 P0000 T02030182
RODN 242146Z 30006KT 10SM FEW010 BKN018 BKN035 20/18 A2985 RMK AO2A DZB2056E2057DZB2059E01RAB01E11DZB11E18DZB26 SLP114 $
RODN 242136Z 30005KT 10SM SCT012 BKN018 OVC025 20/18 A2984 RMK AO2A DZB2056E2057DZB2059E01RAB01E11DZB11E18DZB26 SLP111 $
RODN 242126Z 30005KT 10SM -DZ FEW005 BKN018 OVC025 20/18 A2984 RMK AO2A DZB2056E2057DZB2059E01RAB01E11DZB11E18DZB26 SLP111 $
RODN 242114Z 30006KT 7SM FEW005 BKN012 OVC025 20/18 A2984 RMK AO2A DZB2056E2057DZB2059E01RAB01E11DZB11 SLP111 $
RODN 242110Z AUTO 30006KT 6SM -RA CLR 20/19 A2984 RMK AO2 DZB2056E2057DZB2059E01RAB01 SLP111 $
RODN 242056Z AUTO 30006KT 10SM CLR 20/18 A2983 RMK AO2 DZB1956E1957DZB31E32RAB32E49DZB49 SLP107 P0000 60001 T02010184 52006 $
RODN 242026Z AUTO 30006KT 10SM CLR 20/18 A2982 RMK AO2 DZB1956E1957 SLP104 $
RODN 241956Z AUTO 29007KT 10SM CLR 20/19 A2982 RMK AO2 DZB16E28RAB40 SLP104 P0001 T02040185 $
RODN 241928Z AUTO 30006KT 10SM SCT014 21/19 A2982 RMK AO2 DZB16E28 SLP104 $
RODN 241916Z AUTO 30007KT 10SM -DZ BKN014 OVC019 21/18 A2982 RMK AO2 DZB16 CIG 013 RWY05 SLP104 $
RODN 241906Z AUTO 30008KT 10SM BKN014 OVC019 21/18 A2982 RMK AO2 SLP104 $
RODN 241856Z AUTO 29005KT 10SM OVC016 21/18 A2981 RMK AO2 CIG 014 RWY05 SLP100 T02070184 $
RODN 241836Z AUTO 29008KT 10SM BKN016 21/18 A2981 RMK AO2 CIG 012 RWY05 SLP100 $
RODN 241756Z AUTO 29007KT 10SM OVC014 21/19 A2981 RMK AO2 DZB05E15 CIG 012 RWY05 SLP100 P0000 60017 T02070186 10219 20205 57014 $
RODN 241715Z AUTO 29005KT 10SM BKN017 21/18 A2982 RMK AO2 DZB05E15 CIG 014 RWY05 SLP104 $
RODN 241705Z AUTO 29005KT 10SM -DZ BKN016 21/18 A2982 RMK AO2 DZB05 CIG 014 RWY05 SLP104 $
RODN 241656Z AUTO 28006KT 10SM BKN016 21/19 A2982 RMK AO2 BKN V OVC CIG 013 RWY05 SLP104 T02070186 $
RODN 241606Z AUTO 29006KT 10SM OVC015 21/19 A2984 RMK AO2 CIG 012 RWY05 SLP110 $
RODN 241556Z AUTO 29004KT 10SM BKN014 21/19 A2984 RMK AO2 RAE22DZB22E23 CIG 012 RWY05 SLP110 P0001 T02070192 $
RODN 241543Z 29005KT 10SM FEW007 BKN014 21/19 A2984 RMK AO2A RAE22DZB22E23 CIG 011 RWY05 SLP110 $
RODN 241523Z 29004KT 10SM SCT009 BKN015 21/19 A2985 RMK AO2A RAE22DZB22E23 SLP114 $
RODN 241506Z AUTO 29007KT 9SM -RA SCT011 SCT016 21/19 A2985 RMK AO2 SLP114 $
RODN 241456Z AUTO 30007KT 10SM -RA SCT009 BKN013 21/19 A2985 RMK AO2 RAB51 CIG 009V013 CIG 005 RWY05 SLP114 P0000 60016 T02050193 402780205 51011 $
RODN 241451Z AUTO 29006KT 10SM -RA BKN009 BKN013 21/19 A2985 RMK AO2 RAB51 CIG 007V009 CIG 005 RWY05 SLP114 $
RODN 241446Z AUTO 30007KT 9SM BKN009 BKN013 21/19 A2985 RMK AO2 CIG 007V009 CIG 005 RWY05 SLP114 $
RODN 241436Z AUTO 31008KT 9SM BKN007 21/19 A2984 RMK AO2 CIG 005 RWY05 SLP110 $
RODN 241426Z AUTO 30006KT 8SM BKN006 21/20 A2985 RMK AO2 CIG 005 RWY05 SLP114 $
RODN 241356Z 30008KT 10SM BKN010 21/20 A2985 RMK AO2A BKN010 V SCT RAE33DZB33E43 SLP114 P0003 T02120200 $
RODN 241338Z AUTO 30007KT 10SM CLR 21/20 A2985 RMK AO2 RAE33DZB33 SLP114 $
RODN 241326Z AUTO 29006KT 10SM -RA SCT008 SCT013 21/20 A2985 RMK AO2 SLP114 $
RODN 241316Z AUTO 29005KT 10SM -RA SCT008 BKN013 21/20 A2985 RMK AO2 CIG 009V013 CIG 009 RWY05 SLP114 $
RODN 241306Z AUTO 30005KT 10SM -RA BKN009 22/21 A2984 RMK AO2 CIG 007V009 CIG 008 RWY05 SLP110 $
RODN 241256Z AUTO 30006KT 10SM -RA SCT006 22/21 A2984 RMK AO2 RAE34RAB41 TSE00 SLP110 P0013 T02150205 $
RODN 241251Z AUTO 31006KT 10SM -RA FEW006 22/21 A2984 RMK AO2 RAE34RAB41 TSE00 SLP110 $
RODN 241241Z AUTO 30006KT 10SM -RA SCT009 BKN016 22/21 A2984 RMK AO2 RAE34RAB41 TSE00 CIG 009V016 CIG 008 RWY05 SLP110 $
RODN 241234Z AUTO 28005KT 10SM BKN009 22/21 A2984 RMK AO2 RAE34 TSE00 BKN V OVC CIG 007 RWY05 SLP110 $
RODN 241230Z AUTO 28004KT 9SM -RA OVC009 22/21 A2984 RMK AO2 TSE00 CIG 009V011 CIG 001 RWY05 SLP110 $
RODN 241210Z AUTO 30006KT 5SM RA BR OVC011 22/21 A2982 RMK AO2 TSE00 CIG 001 RWY05 SLP104 $
RODN 241200Z AUTO 30007KT 4SM +RA BR OVC011 22/21 A2982 RMK AO2 VIS 2 3/4 RWY05 LTG DSNT NE-E TSE00 CIG 001 RWY05 SLP104 $
RODN 241156Z AUTO 29005KT 5SM +TSRA BR OVC011 22/21 A2982 RMK AO2 PK WND 25027/03 VIS 2 3/4 RWY05 RAB06 TSB24 CIG 001 RWY05 SLP104 P0043 60054 T02190209 10273 20219 52017 $
RODN 241145Z AUTO 26004KT 4SM TSRA BR OVC011 22/21 A2983 RMK AO2 VIS 2 1/2 RWY05 RAB06 TSB24 CIG 001 RWY05 SLP107 $
RODN 241134Z AUTO 23004KT 5SM TSRA BR OVC011 22/21 A2984 RMK AO2 VIS 2 3/4 RWY05 RAB06 TSB24 CIG 009 RWY05 PRESRR SLP110 $
RODN 241124Z AUTO 31006KT 3SM +TSRA BR OVC011 22/21 A2982 RMK AO2 VIS 1 3/4 RWY05 RAB06 TSB24 PRESRR SLP104 $
RODN 241112Z AUTO 29013G26KT 3SM +RA BR OVC011 23/21 A2980 RMK AO2 WSHFT 07 VIS 1 3/4 RWY05 RAB06 SLP097 $
RODN 241107Z AUTO 25014G21KT 5SM +RA BR OVC011 24/22 A2981 RMK AO2 WSHFT 00 VIS 2 3/4 RWY05 RAB06 CIG 001 RWY05 SLP100 $
RODN 241106Z AUTO 24014G21KT 5SM +RA BR OVC011 24/22 A2980 RMK AO2 RAB06 CIG 001 RWY05 SLP097 $
RODN 241057Z AUTO 20014G21KT 6SM BR OVC011 25/23 A2980 RMK AO2 RAB05E21 SLP097 P0011 T02450229 $
RODN 241051Z AUTO 20017G21KT 7SM OVC011 25/23 A2980 RMK AO2 RAB05E21 SLP097 $
RODN 241041Z AUTO 19016KT 7SM BKN010 BKN015 25/23 A2980 RMK AO2 RAB05E21 CIG 010V013 SLP097 $
RODN 241031Z AUTO 20014G21KT 8SM SCT007 BKN013 BKN030 25/23 A2979 RMK AO2 RAB05E21 CIG 013V030 CIG 011 RWY05 SLP093 $
RODN 241021Z AUTO 19014G21KT 10SM FEW015 FEW030 25/23 A2979 RMK AO2 RAB05E21 SLP093 $
RODN 241005Z AUTO 19016KT 10SM -RA SCT016 SCT031 25/23 A2979 RMK AO2 RAB05 SLP093 $
RODN 240956Z AUTO 19014G21KT 10SM SCT016 25/23 A2979 RMK AO2 SLP093 T02520227 $
RODN 240856Z AUTO 19014G20KT 10SM FEW027 25/22 A2977 RMK AO2 SLP087 T02540223 55004 $
RODN 240826Z AUTO 18014KT 10SM FEW018 SCT027 26/22 A2977 RMK AO2 SLP087 $
RODN 240756Z AUTO 18012G22KT 10SM BKN027 26/22 A2976 RMK AO2 SLP083 T02600220 $
RODN 240747Z 18015KT 10SM FEW026 26/22 A2976
RODN 240656Z AUTO 18015KT 10SM M 27/23 A2976 RMK AO2 SLP083 T02710225 $
RODN 240556Z AUTO 18015G21KT 10SM FEW036 FEW200 27/22 A2979 RMK AO2 SLP093 T02690223 10278 20255 57017
RODN 240457Z AUTO 18016G23KT 10SM FEW150 SCT170 SCT200 27/22 A2981 RMK AO2 SLP100 T02740223
RODN 240356Z AUTO 17017G23KT 10SM FEW021 SCT120 SCT150 BKN180 27/22 A2983 RMK AO2 SLP107 T02720223
RODN 240256Z AUTO 15018G25KT 10SM FEW019 FEW120 SCT180 SCT210 28/23 A2984 RMK AO2 SLP110 T02760227 55009
RODN 240157Z AUTO 16014G20KT 10SM FEW015 FEW023 SCT120 BKN190 27/22 A2986 RMK AO2 SLP117 T02660222
RODN 240057Z AUTO 15017KT 10SM FEW015 26/22 A2986 RMK AO2 SLP117 T02620222
RODN 232356Z AUTO 16011KT 10SM SCT012 26/22 A2986 RMK AO2 SLP117 T02550224 10255 20233 50002
RODN 232346Z AUTO 15011G19KT 10SM SCT010 SCT015 25/22 A2986 RMK AO2 SLP117
RODN 232316Z AUTO 15013G18KT 10SM BKN010 25/22 A2986 RMK AO2 BKN V SCT CIG 009 RWY05 SLP117
RODN 232306Z AUTO 14013G22KT 10SM SCT010 25/23 A2986 RMK AO2 SLP117
RODN 232256Z AUTO 14013G19KT 10SM BKN010 25/23 A2986 RMK AO2 CIG 009 RWY05 SLP117 T02480225
RODN 232156Z AUTO 14010KT 10SM FEW013 24/22 A2986 RMK AO2 SLP117 T02400220
RODN 232057Z AUTO 15010KT 10SM SCT010 SCT016 24/22 A2986 RMK AO2 SLP117 T02360218
RODN 231957Z 17010KT 10SM FEW010 24/22 A2988 RMK AO2A SLPNO T02360218 $
RODN 231857Z 16012G19KT 10SM FEW008 SCT013 24/22 A2990 RMK AO2A SLPNO T02350217 $
RODN 231836Z 15011G17KT 10SM SCT008 BKN014 BKN020 23/22 A2989 RMK AO2A BKN014 V SCT SLPNO $
RODN 231756Z 14014KT 10SM FEW007 BKN011 23/22 A2988 RMK AO2A BKN011 V SCT SLPNO T02330217 10235 20233 $
RODN 231656Z AUTO 14009KT 10SM SCT010 BKN040 23/22 A2987 RMK AO2 SLP121 T02340218 $
RODN 231646Z AUTO 14011KT 10SM BKN008 OVC033 23/22 A2987 RMK AO2 SLP121 $
RODN 231616Z AUTO 15011KT 10SM BKN009 BKN042 23/22 A2989 RMK AO2 CIG 009V042 BKN009 V SCT SLP127 $
RODN 231556Z 15009KT 10SM SCT010 SCT041 23/22 A2990 RMK AO2A SLP131 T02340218 $
RODN 231256Z AUTO 14009KT 10SM SCT010 SCT041 23/22 A2994 RMK AO2 SLP144 T02340216 $
RODN 231156Z AUTO 13008KT 10SM FEW010 SCT045 23/22 A2993 RMK AO2 SLP141 60000 T02340215 10260 20234 52012 $
RODN 231056Z AUTO 13009KT 10SM SCT010 24/22 A2992 RMK AO2 SLP138 T02350216 $
RODN 231046Z AUTO 12009KT 10SM BKN010 24/22 A2991 RMK AO2 BKN V SCT CIG 009 RWY23 SLP134 $
RODN 230956Z AUTO 13008KT 10SM FEW011 24/22 A2990 RMK AO2 RAE0856 SLP131 P0000 T02360215 $
RODN 230907Z AUTO 13010KT 10SM SCT011 24/22 A2990 RMK AO2 RAE0856 SLP131 $
RODN 230857Z AUTO 13009KT 10SM BKN011 24/22 A2989 RMK AO2 RAE56 SLP128 $
RODN 230856Z AUTO 13009KT 10SM -RA BKN011 24/22 A2989 RMK AO2 RAE01RAB19E33DZB33E34RAB47 SLP128 P0000 60000 T02420215 56007 $
RODN 230847Z AUTO 12008KT 10SM -RA BKN012 24/22 A2989 RMK AO2 RAE01RAB19E33DZB33E34RAB47 SLP128 $
RODN 230834Z AUTO 13011G15KT 10SM BKN013 25/22 A2989 RMK AO2 RAE01RAB19E33DZB33E34 SLP127 $
RODN 230819Z AUTO 15009KT 10SM -RA BKN013 25/22 A2989 RMK AO2 RAE01RAB19 BKN V SCT SLP127 $
RODN 230801Z AUTO 15011KT 10SM SCT013 26/22 A2989 RMK AO2 RAE01 SLP127 $
RODN 230756Z AUTO 16011KT 10SM -RA FEW013 26/22 A2989 RMK AO2 RAB51 SLP127 P0000 T02550218 $
RODN 230751Z AUTO 14008KT 10SM -RA FEW013 26/22 A2989 RMK AO2 RAB51 SLP127 $
RODN 230736Z AUTO 14008KT 10SM SCT013 25/22 A2989 RMK AO2 SLP127 $
RODN 230716Z AUTO 14010G17KT 10SM BKN013 25/22 A2989 RMK AO2 BKN V SCT SLP127 $
RODN 230656Z AUTO 14013G18KT 10SM FEW013 SCT060 SCT200 26/22 A2990 RMK AO2 SLP131 T02580216 $
RODN 230646Z AUTO 16012G18KT 10SM SCT013 SCT060 26/22 A2990 RMK AO2 SLP131 $
RODN 230556Z AUTO 15013KT 10SM BKN013 BKN020 26/22 A2991 RMK AO2 SLP134 T02600218 10262 20239 57013 $
RODN 230456Z AUTO 13011KT 10SM BKN013 25/22 A2993 RMK AO2 SLP141 T02520217 $
RODN 230446Z AUTO 13012G19KT 10SM BKN013 25/22 A2993 RMK AO2 CIG 013V170 SLP141 $
RODN 230416Z AUTO 14014G20KT 10SM SCT012 SCT018 BKN170 BKN190 26/22 A2993 RMK AO2 SLP141 $
RODN 230406Z AUTO 14013G19KT 10SM SCT012 BKN018 BKN190 26/22 A2993 RMK AO2 CIG 011V190 SLP141 $
RODN 230356Z AUTO 14012G17KT 10SM BKN011 26/22 A2993 RMK AO2 SLP141 T02590222 $
RODN 230316Z AUTO 12014KT 10SM BKN011 25/22 A2995 RMK AO2 SLP148 $
RODN 230256Z AUTO 13014G21KT 10SM BKN010 25/22 A2995 RMK AO2 SLP148 T02520219 55006 $
RODN 230236Z AUTO 13013KT 10SM BKN010 25/22 A2995 RMK AO2 SLP148 $
RODN 230156Z AUTO 13011KT 10SM BKN009 25/22 A2996 RMK AO2 SLP151 T02490218 $
RODN 230056Z AUTO 13013KT 10SM BKN009 24/22 A2996 RMK AO2 CIG 009V200 BKN V SCT SLP151 T02410216 $
RODN 230016Z AUTO 12012KT 10SM SCT008 BKN200 24/22 A2997 RMK AO2 SLP155 $
RODN 222356Z AUTO 13009G16KT 10SM BKN008 24/22 A2997 RMK AO2 SLP155 70072 T02380218 10238 20224 50004 $
RODN 222346Z AUTO 13010KT 10SM BKN008 24/22 A2997 RMK AO2 SLP155 $
RODN 222256Z AUTO 12009KT 10SM CLR 23/22 A2997 RMK AO2 SLP155 T02320216 $
RODN 222246Z AUTO 12009KT 10SM FEW007 23/22 A2997 RMK AO2 SLP155 $
RODN 222236Z AUTO 12011KT 10SM BKN007 23/22 A2996 RMK AO2 SLP152 $
RODN 222206Z AUTO 11009KT 10SM OVC008 23/22 A2996 RMK AO2 CIG 007 RWY23 SLP152 $
RODN 222156Z AUTO 12008KT 10SM OVC007 23/22 A2996 RMK AO2 SLP152 T02270215 $
RODN 222126Z AUTO 12007KT 10SM BKN007 23/21 A2995 RMK AO2 BKN V SCT SLP148 $
RODN 222056Z AUTO 13008KT 10SM CLR 23/21 A2995 RMK AO2 SLP148 T02250213 53005 $
RODN 221956Z AUTO 14007KT 10SM FEW025 23/21 A2995 RMK AO2 SLP148 T02260210 $
RODN 221856Z 13009KT 10SM SCT009 23/21 A2993 RMK AO2 SLP141 T02260212 $
RODN 221826Z AUTO 12007KT 10SM OVC008 23/21 A2993 RMK AO2 CIG 006V008 SLP141 $
RODN 221756Z AUTO 13005KT 10SM OVC006 23/22 A2994 RMK AO2 SLP145 T02250215 10225 20205 57012 $
RODN 221706Z AUTO 12006KT 10SM OVC006 22/21 A2996 RMK AO2 SLP152 $
RODN 221656Z AUTO 10005KT 10SM BKN007 22/21 A2996 RMK AO2 SLP152 T02220212 $
RODN 221646Z AUTO 11005KT 10SM BKN007 22/21 A2996 RMK AO2 BKN V SCT SLP152 $
RODN 221556Z AUTO 12005KT 10SM CLR 22/21 A2996 RMK AO2 SLP152 T02220208 $
RODN 221456Z AUTO 14004KT 10SM CLR 22/21 A2998 RMK AO2 SLP158 T02240210 402340204 55007 $
RODN 221356Z AUTO 11007KT 10SM CLR 22/21 A2998 RMK AO2 SLP158 T02190207 $
RODN 221256Z AUTO 09009KT 10SM CLR 22/21 A2998 RMK AO2 SLP158 T02180206 $
RODN 221216Z AUTO 09006KT 10SM FEW025 21/20 A2999 RMK AO2 SLP162 $
RODN 221206Z AUTO 07006KT 10SM BKN024 21/20 A2999 RMK AO2 SLP162 $
RODN 221156Z AUTO 06005KT 10SM OVC025 21/20 A3000 RMK AO2 CIG 024 RWY23 SLP165 60023 T02090199 10228 20204 52019 $
RODN 221116Z AUTO 05004KT 10SM BKN021 21/20 A2998 RMK AO2 CIG 019V024 SLP158 $